sensor_id;sensor_type;location;lat;lon;timestamp;P1;durP1;ratioP1;P2;durP2;ratioP2
29380;SDS011;16364;52.490;13.326;2022-10-16T00:01:04;1.80;;;1.70;;
29380;SDS011;16364;52.490;13.326;2022-10-16T00:03:29;2.33;;;1.43;;
29380;SDS011;16364;52.490;13.326;2022-10-16T00:05:58;1.80;;;1.70;;
29380;SDS011;16364;52.490;13.326;2022-10-16T00:08:23;2.10;;;1.90;;
29380;SDS011;16364;52.490;13.326;2022-10-16T00:10:48;1.83;;;1.73;;
29380;SDS011;16364;52.490;13.326;2022-10-16T00:13:14;2.43;;;1.60;;
29380;SDS011;16364;52.490;13.326;2022-10-16T00:15:39;1.70;;;1.60;;
29380;SDS011;16364;52.490;13.326;2022-10-16T00:18:04;2.10;;;1.70;;
29380;SDS011;16364;52.490;13.326;2022-10-16T00:20:30;1.60;;;1.50;;
29380;SDS011;16364;52.490;13.326;2022-10-16T00:22:56;2.03;;;1.50;;
29380;SDS011;16364;52.490;13.326;2022-10-16T00:25:22;1.47;;;1.37;;
29380;SDS011;16364;52.490;13.326;2022-10-16T00:27:47;6.37;;;1.53;;
29380;SDS011;16364;52.490;13.326;2022-10-16T00:30:12;1.60;;;1.50;;
29380;SDS011;16364;52.490;13.326;2022-10-16T00:32:37;1.57;;;1.47;;
29380;SDS011;16364;52.490;13.326;2022-10-16T00:35:02;5.23;;;1.90;;
29380;SDS011;16364;52.490;13.326;2022-10-16T00:37:28;1.70;;;1.60;;
29380;SDS011;16364;52.490;13.326;2022-10-16T00:39:54;1.77;;;1.67;;
29380;SDS011;16364;52.490;13.326;2022-10-16T00:42:19;5.10;;;2.67;;
29380;SDS011;16364;52.490;13.326;2022-10-16T00:44:52;2.10;;;1.90;;
29380;SDS011;16364;52.490;13.326;2022-10-16T00:47:18;1.40;;;1.30;;
29380;SDS011;16364;52.490;13.326;2022-10-16T00:49:44;3.00;;;1.50;;
29380;SDS011;16364;52.490;13.326;2022-10-16T00:52:10;1.57;;;1.47;;
29380;SDS011;16364;52.490;13.326;2022-10-16T00:54:36;1.73;;;1.50;;
29380;SDS011;16364;52.490;13.326;2022-10-16T00:57:03;3.23;;;1.43;;
29380;SDS011;16364;52.490;13.326;2022-10-16T00:59:31;1.70;;;1.60;;
29380;SDS011;16364;52.490;13.326;2022-10-16T01:01:57;1.57;;;1.47;;
29380;SDS011;16364;52.490;13.326;2022-10-16T01:04:23;1.97;;;1.50;;
29380;SDS011;16364;52.490;13.326;2022-10-16T01:12:06;1.60;;;1.50;;
29380;SDS011;16364;52.490;13.326;2022-10-16T01:14:42;1.83;;;1.70;;
29380;SDS011;16364;52.490;13.326;2022-10-16T01:17:15;1.87;;;1.50;;
29380;SDS011;16364;52.490;13.326;2022-10-16T01:25:30;1.70;;;1.60;;
29380;SDS011;16364;52.490;13.326;2022-10-16T01:28:00;1.90;;;1.80;;
29380;SDS011;16364;52.490;13.326;2022-10-16T01:30:26;1.93;;;1.60;;
29380;SDS011;16364;52.490;13.326;2022-10-16T01:32:55;2.53;;;1.60;;
29380;SDS011;16364;52.490;13.326;2022-10-16T01:35:23;1.60;;;1.50;;
29380;SDS011;16364;52.490;13.326;2022-10-16T01:40:16;1.80;;;1.70;;
29380;SDS011;16364;52.490;13.326;2022-10-16T01:42:42;1.67;;;1.57;;
29380;SDS011;16364;52.490;13.326;2022-10-16T01:45:11;1.60;;;1.50;;
29380;SDS011;16364;52.490;13.326;2022-10-16T01:47:38;2.63;;;1.57;;
29380;SDS011;16364;52.490;13.326;2022-10-16T01:50:04;1.87;;;1.70;;
29380;SDS011;16364;52.490;13.326;2022-10-16T01:52:30;1.60;;;1.50;;
29380;SDS011;16364;52.490;13.326;2022-10-16T01:54:57;7.33;;;2.27;;
29380;SDS011;16364;52.490;13.326;2022-10-16T01:57:23;5.90;;;1.80;;
29380;SDS011;16364;52.490;13.326;2022-10-16T01:59:50;1.60;;;1.50;;
29380;SDS011;16364;52.490;13.326;2022-10-16T02:02:17;1.70;;;1.60;;
29380;SDS011;16364;52.490;13.326;2022-10-16T02:04:47;2.23;;;1.50;;
29380;SDS011;16364;52.490;13.326;2022-10-16T02:07:13;1.60;;;1.50;;
29380;SDS011;16364;52.490;13.326;2022-10-16T02:09:39;1.50;;;1.40;;
29380;SDS011;16364;52.490;13.326;2022-10-16T02:12:07;1.43;;;1.33;;
29380;SDS011;16364;52.490;13.326;2022-10-16T02:14:33;2.80;;;1.70;;
29380;SDS011;16364;52.490;13.326;2022-10-16T02:16:58;1.90;;;1.50;;
29380;SDS011;16364;52.490;13.326;2022-10-16T02:19:23;3.33;;;1.63;;
29380;SDS011;16364;52.490;13.326;2022-10-16T02:21:50;2.00;;;1.40;;
29380;SDS011;16364;52.490;13.326;2022-10-16T02:24:22;2.13;;;1.57;;
29380;SDS011;16364;52.490;13.326;2022-10-16T02:27:03;1.57;;;1.47;;
29380;SDS011;16364;52.490;13.326;2022-10-16T02:29:30;3.40;;;2.30;;
29380;SDS011;16364;52.490;13.326;2022-10-16T02:32:00;1.70;;;1.60;;
29380;SDS011;16364;52.490;13.326;2022-10-16T02:34:26;1.50;;;1.40;;
29380;SDS011;16364;52.490;13.326;2022-10-16T02:36:52;1.70;;;1.60;;
29380;SDS011;16364;52.490;13.326;2022-10-16T02:39:18;1.60;;;1.50;;
29380;SDS011;16364;52.490;13.326;2022-10-16T02:41:44;1.60;;;1.50;;
29380;SDS011;16364;52.490;13.326;2022-10-16T02:44:10;2.17;;;1.60;;
29380;SDS011;16364;52.490;13.326;2022-10-16T02:46:35;1.40;;;1.30;;
29380;SDS011;16364;52.490;13.326;2022-10-16T02:49:00;2.10;;;1.50;;
29380;SDS011;16364;52.490;13.326;2022-10-16T02:51:25;1.50;;;1.20;;
29380;SDS011;16364;52.490;13.326;2022-10-16T02:53:51;1.40;;;1.30;;
29380;SDS011;16364;52.490;13.326;2022-10-16T02:56:16;1.60;;;1.50;;
29380;SDS011;16364;52.490;13.326;2022-10-16T02:58:41;2.00;;;1.70;;
29380;SDS011;16364;52.490;13.326;2022-10-16T03:01:06;1.70;;;1.50;;
29380;SDS011;16364;52.490;13.326;2022-10-16T03:03:31;1.77;;;1.67;;
29380;SDS011;16364;52.490;13.326;2022-10-16T03:05:57;1.37;;;1.27;;
29380;SDS011;16364;52.490;13.326;2022-10-16T03:08:22;1.80;;;1.67;;
29380;SDS011;16364;52.490;13.326;2022-10-16T03:10:50;1.93;;;1.30;;
29380;SDS011;16364;52.490;13.326;2022-10-16T03:13:15;1.77;;;1.67;;
29380;SDS011;16364;52.490;13.326;2022-10-16T03:15:40;1.50;;;1.40;;
29380;SDS011;16364;52.490;13.326;2022-10-16T03:18:05;1.67;;;1.40;;
29380;SDS011;16364;52.490;13.326;2022-10-16T03:20:30;2.60;;;1.40;;
29380;SDS011;16364;52.490;13.326;2022-10-16T03:22:56;1.50;;;1.30;;
29380;SDS011;16364;52.490;13.326;2022-10-16T03:25:21;1.50;;;1.40;;
29380;SDS011;16364;52.490;13.326;2022-10-16T03:27:46;2.60;;;1.63;;
29380;SDS011;16364;52.490;13.326;2022-10-16T03:30:11;1.70;;;1.37;;
29380;SDS011;16364;52.490;13.326;2022-10-16T03:32:37;1.50;;;1.40;;
29380;SDS011;16364;52.490;13.326;2022-10-16T03:35:02;1.77;;;1.67;;
29380;SDS011;16364;52.490;13.326;2022-10-16T03:37:27;1.77;;;1.53;;
29380;SDS011;16364;52.490;13.326;2022-10-16T03:39:52;2.37;;;1.53;;
29380;SDS011;16364;52.490;13.326;2022-10-16T03:42:18;1.83;;;1.73;;
29380;SDS011;16364;52.490;13.326;2022-10-16T03:44:43;1.80;;;1.70;;
29380;SDS011;16364;52.490;13.326;2022-10-16T03:47:08;1.60;;;1.50;;
29380;SDS011;16364;52.490;13.326;2022-10-16T03:49:33;2.80;;;1.80;;
29380;SDS011;16364;52.490;13.326;2022-10-16T03:51:58;2.40;;;1.97;;
29380;SDS011;16364;52.490;13.326;2022-10-16T03:54:24;2.00;;;1.40;;
29380;SDS011;16364;52.490;13.326;2022-10-16T03:56:49;2.00;;;1.90;;
29380;SDS011;16364;52.490;13.326;2022-10-16T03:59:14;1.93;;;1.80;;
29380;SDS011;16364;52.490;13.326;2022-10-16T04:01:39;1.77;;;1.67;;
29380;SDS011;16364;52.490;13.326;2022-10-16T04:04:04;1.60;;;1.50;;
29380;SDS011;16364;52.490;13.326;2022-10-16T04:06:30;1.73;;;1.63;;
29380;SDS011;16364;52.490;13.326;2022-10-16T04:08:55;1.60;;;1.50;;
29380;SDS011;16364;52.490;13.326;2022-10-16T04:11:21;1.57;;;1.47;;
29380;SDS011;16364;52.490;13.326;2022-10-16T04:13:46;1.70;;;1.60;;
29380;SDS011;16364;52.490;13.326;2022-10-16T04:16:11;1.80;;;1.70;;
29380;SDS011;16364;52.490;13.326;2022-10-16T04:18:36;1.70;;;1.60;;
29380;SDS011;16364;52.490;13.326;2022-10-16T04:21:03;1.70;;;1.60;;
29380;SDS011;16364;52.490;13.326;2022-10-16T04:23:28;2.07;;;1.67;;
29380;SDS011;16364;52.490;13.326;2022-10-16T04:25:53;1.50;;;1.40;;
29380;SDS011;16364;52.490;13.326;2022-10-16T04:28:18;1.47;;;1.37;;
29380;SDS011;16364;52.490;13.326;2022-10-16T04:30:43;1.77;;;1.67;;
29380;SDS011;16364;52.490;13.326;2022-10-16T04:33:09;2.00;;;1.90;;
29380;SDS011;16364;52.490;13.326;2022-10-16T04:35:34;1.77;;;1.67;;
29380;SDS011;16364;52.490;13.326;2022-10-16T04:38:00;1.67;;;1.57;;
29380;SDS011;16364;52.490;13.326;2022-10-16T04:40:25;1.93;;;1.60;;
29380;SDS011;16364;52.490;13.326;2022-10-16T04:42:50;1.80;;;1.70;;
29380;SDS011;16364;52.490;13.326;2022-10-16T04:45:16;1.70;;;1.60;;
29380;SDS011;16364;52.490;13.326;2022-10-16T04:47:41;2.30;;;1.90;;
29380;SDS011;16364;52.490;13.326;2022-10-16T04:50:06;1.80;;;1.67;;
29380;SDS011;16364;52.490;13.326;2022-10-16T04:52:32;1.83;;;1.73;;
29380;SDS011;16364;52.490;13.326;2022-10-16T04:54:57;1.70;;;1.60;;
29380;SDS011;16364;52.490;13.326;2022-10-16T04:57:25;2.17;;;1.50;;
29380;SDS011;16364;52.490;13.326;2022-10-16T04:59:51;1.70;;;1.60;;
29380;SDS011;16364;52.490;13.326;2022-10-16T05:02:17;1.60;;;1.50;;
29380;SDS011;16364;52.490;13.326;2022-10-16T05:04:42;1.83;;;1.63;;
29380;SDS011;16364;52.490;13.326;2022-10-16T05:07:07;1.87;;;1.67;;
29380;SDS011;16364;52.490;13.326;2022-10-16T05:09:32;2.10;;;2.00;;
29380;SDS011;16364;52.490;13.326;2022-10-16T05:11:57;1.90;;;1.70;;
29380;SDS011;16364;52.490;13.326;2022-10-16T05:14:22;2.10;;;2.00;;
29380;SDS011;16364;52.490;13.326;2022-10-16T05:16:48;1.87;;;1.77;;
29380;SDS011;16364;52.490;13.326;2022-10-16T05:19:13;1.80;;;1.70;;
29380;SDS011;16364;52.490;13.326;2022-10-16T05:21:39;1.73;;;1.63;;
29380;SDS011;16364;52.490;13.326;2022-10-16T05:24:04;1.70;;;1.60;;
29380;SDS011;16364;52.490;13.326;2022-10-16T05:26:29;2.17;;;1.70;;
29380;SDS011;16364;52.490;13.326;2022-10-16T05:28:54;2.17;;;1.40;;
29380;SDS011;16364;52.490;13.326;2022-10-16T05:31:19;1.70;;;1.60;;
29380;SDS011;16364;52.490;13.326;2022-10-16T05:33:45;1.57;;;1.47;;
29380;SDS011;16364;52.490;13.326;2022-10-16T05:36:10;1.40;;;1.20;;
29380;SDS011;16364;52.490;13.326;2022-10-16T05:38:35;3.50;;;1.70;;
29380;SDS011;16364;52.490;13.326;2022-10-16T05:41:01;1.83;;;1.73;;
29380;SDS011;16364;52.490;13.326;2022-10-16T05:43:27;1.70;;;1.60;;
29380;SDS011;16364;52.490;13.326;2022-10-16T05:45:59;1.80;;;1.70;;
29380;SDS011;16364;52.490;13.326;2022-10-16T05:48:24;1.97;;;1.87;;
29380;SDS011;16364;52.490;13.326;2022-10-16T05:51:11;2.50;;;1.83;;
29380;SDS011;16364;52.490;13.326;2022-10-16T05:53:35;1.90;;;1.80;;
29380;SDS011;16364;52.490;13.326;2022-10-16T05:56:01;1.97;;;1.73;;
29380;SDS011;16364;52.490;13.326;2022-10-16T05:58:30;2.07;;;1.90;;
29380;SDS011;16364;52.490;13.326;2022-10-16T06:01:00;2.87;;;1.80;;
29380;SDS011;16364;52.490;13.326;2022-10-16T06:03:25;1.60;;;1.50;;
29380;SDS011;16364;52.490;13.326;2022-10-16T06:05:50;1.50;;;1.40;;
29380;SDS011;16364;52.490;13.326;2022-10-16T06:08:16;1.80;;;1.70;;
29380;SDS011;16364;52.490;13.326;2022-10-16T06:10:42;1.77;;;1.67;;
29380;SDS011;16364;52.490;13.326;2022-10-16T06:13:09;1.63;;;1.53;;
29380;SDS011;16364;52.490;13.326;2022-10-16T06:15:34;1.93;;;1.83;;
29380;SDS011;16364;52.490;13.326;2022-10-16T06:17:59;2.10;;;1.90;;
29380;SDS011;16364;52.490;13.326;2022-10-16T06:20:24;2.33;;;2.17;;
29380;SDS011;16364;52.490;13.326;2022-10-16T06:22:49;1.90;;;1.80;;
29380;SDS011;16364;52.490;13.326;2022-10-16T06:25:14;2.63;;;2.43;;
29380;SDS011;16364;52.490;13.326;2022-10-16T06:27:40;2.40;;;2.20;;
29380;SDS011;16364;52.490;13.326;2022-10-16T06:30:06;2.33;;;2.17;;
29380;SDS011;16364;52.490;13.326;2022-10-16T06:32:31;2.17;;;1.97;;
29380;SDS011;16364;52.490;13.326;2022-10-16T06:34:56;2.30;;;2.10;;
29380;SDS011;16364;52.490;13.326;2022-10-16T06:37:22;2.63;;;2.43;;
29380;SDS011;16364;52.490;13.326;2022-10-16T06:39:47;2.20;;;2.00;;
29380;SDS011;16364;52.490;13.326;2022-10-16T06:42:12;1.63;;;1.53;;
29380;SDS011;16364;52.490;13.326;2022-10-16T06:44:37;1.70;;;1.60;;
29380;SDS011;16364;52.490;13.326;2022-10-16T06:47:02;1.90;;;1.80;;
29380;SDS011;16364;52.490;13.326;2022-10-16T06:49:28;1.93;;;1.57;;
29380;SDS011;16364;52.490;13.326;2022-10-16T06:51:53;2.07;;;1.70;;
29380;SDS011;16364;52.490;13.326;2022-10-16T06:54:18;2.43;;;2.10;;
29380;SDS011;16364;52.490;13.326;2022-10-16T06:56:43;3.67;;;1.93;;
29380;SDS011;16364;52.490;13.326;2022-10-16T06:59:09;2.43;;;1.80;;
29380;SDS011;16364;52.490;13.326;2022-10-16T07:01:34;2.27;;;2.07;;
29380;SDS011;16364;52.490;13.326;2022-10-16T07:04:00;1.87;;;1.73;;
29380;SDS011;16364;52.490;13.326;2022-10-16T07:06:25;1.90;;;1.70;;
29380;SDS011;16364;52.490;13.326;2022-10-16T07:08:51;1.60;;;1.50;;
29380;SDS011;16364;52.490;13.326;2022-10-16T07:11:17;1.97;;;1.60;;
29380;SDS011;16364;52.490;13.326;2022-10-16T07:13:43;1.90;;;1.70;;
29380;SDS011;16364;52.490;13.326;2022-10-16T07:18:34;1.80;;;1.70;;
29380;SDS011;16364;52.490;13.326;2022-10-16T07:21:02;1.90;;;1.43;;
29380;SDS011;16364;52.490;13.326;2022-10-16T07:23:28;1.70;;;1.60;;
29380;SDS011;16364;52.490;13.326;2022-10-16T07:25:53;1.93;;;1.50;;
29380;SDS011;16364;52.490;13.326;2022-10-16T07:28:19;1.93;;;1.70;;
29380;SDS011;16364;52.490;13.326;2022-10-16T07:30:44;1.60;;;1.50;;
29380;SDS011;16364;52.490;13.326;2022-10-16T07:33:09;1.67;;;1.57;;
29380;SDS011;16364;52.490;13.326;2022-10-16T07:35:35;1.50;;;1.40;;
29380;SDS011;16364;52.490;13.326;2022-10-16T07:38:00;1.70;;;1.60;;
29380;SDS011;16364;52.490;13.326;2022-10-16T07:40:25;1.43;;;1.33;;
29380;SDS011;16364;52.490;13.326;2022-10-16T07:42:52;1.60;;;1.50;;
29380;SDS011;16364;52.490;13.326;2022-10-16T07:45:17;1.53;;;1.40;;
29380;SDS011;16364;52.490;13.326;2022-10-16T07:47:42;2.70;;;1.47;;
29380;SDS011;16364;52.490;13.326;2022-10-16T07:50:07;1.70;;;1.27;;
29380;SDS011;16364;52.490;13.326;2022-10-16T07:52:33;1.80;;;1.70;;
29380;SDS011;16364;52.490;13.326;2022-10-16T07:54:58;1.40;;;1.30;;
29380;SDS011;16364;52.490;13.326;2022-10-16T07:57:23;1.50;;;1.40;;
29380;SDS011;16364;52.490;13.326;2022-10-16T07:59:48;1.40;;;1.30;;
29380;SDS011;16364;52.490;13.326;2022-10-16T08:02:13;1.40;;;1.30;;
29380;SDS011;16364;52.490;13.326;2022-10-16T08:04:39;1.70;;;1.60;;
29380;SDS011;16364;52.490;13.326;2022-10-16T08:07:04;1.60;;;1.50;;
29380;SDS011;16364;52.490;13.326;2022-10-16T08:09:29;2.20;;;1.23;;
29380;SDS011;16364;52.490;13.326;2022-10-16T08:11:54;1.50;;;1.40;;
29380;SDS011;16364;52.490;13.326;2022-10-16T08:14:20;1.80;;;1.43;;
29380;SDS011;16364;52.490;13.326;2022-10-16T08:16:45;3.00;;;1.50;;
29380;SDS011;16364;52.490;13.326;2022-10-16T08:19:10;5.33;;;1.47;;
29380;SDS011;16364;52.490;13.326;2022-10-16T08:21:35;1.70;;;1.60;;
29380;SDS011;16364;52.490;13.326;2022-10-16T08:24:00;1.70;;;1.60;;
29380;SDS011;16364;52.490;13.326;2022-10-16T08:26:26;1.57;;;1.43;;
29380;SDS011;16364;52.490;13.326;2022-10-16T08:28:51;1.90;;;1.50;;
29380;SDS011;16364;52.490;13.326;2022-10-16T08:31:16;1.57;;;1.37;;
29380;SDS011;16364;52.490;13.326;2022-10-16T08:33:42;1.40;;;1.30;;
29380;SDS011;16364;52.490;13.326;2022-10-16T08:36:09;1.53;;;1.23;;
29380;SDS011;16364;52.490;13.326;2022-10-16T08:38:34;1.50;;;1.40;;
29380;SDS011;16364;52.490;13.326;2022-10-16T08:43:38;1.87;;;1.30;;
29380;SDS011;16364;52.490;13.326;2022-10-16T08:48:52;1.77;;;1.23;;
29380;SDS011;16364;52.490;13.326;2022-10-16T08:51:19;3.23;;;1.50;;
29380;SDS011;16364;52.490;13.326;2022-10-16T08:53:58;3.13;;;1.63;;
29380;SDS011;16364;52.490;13.326;2022-10-16T08:56:24;1.10;;;1.10;;
29380;SDS011;16364;52.490;13.326;2022-10-16T08:58:50;1.43;;;1.33;;
29380;SDS011;16364;52.490;13.326;2022-10-16T09:01:17;1.23;;;1.13;;
29380;SDS011;16364;52.490;13.326;2022-10-16T09:08:59;2.27;;;1.13;;
29380;SDS011;16364;52.490;13.326;2022-10-16T09:11:41;1.67;;;1.57;;
29380;SDS011;16364;52.490;13.326;2022-10-16T09:16:57;1.63;;;1.23;;
29380;SDS011;16364;52.490;13.326;2022-10-16T09:19:29;1.80;;;1.70;;
29380;SDS011;16364;52.490;13.326;2022-10-16T09:21:56;1.23;;;1.13;;
29380;SDS011;16364;52.490;13.326;2022-10-16T09:24:22;1.37;;;1.27;;
29380;SDS011;16364;52.490;13.326;2022-10-16T09:26:49;1.67;;;1.30;;
29380;SDS011;16364;52.490;13.326;2022-10-16T09:29:14;1.50;;;1.40;;
29380;SDS011;16364;52.490;13.326;2022-10-16T09:31:40;1.50;;;1.40;;
29380;SDS011;16364;52.490;13.326;2022-10-16T09:34:06;1.30;;;1.20;;
29380;SDS011;16364;52.490;13.326;2022-10-16T09:36:39;1.70;;;1.53;;
29380;SDS011;16364;52.490;13.326;2022-10-16T09:39:06;2.10;;;1.20;;
29380;SDS011;16364;52.490;13.326;2022-10-16T09:41:33;1.40;;;1.30;;
29380;SDS011;16364;52.490;13.326;2022-10-16T09:43:59;2.53;;;1.50;;
29380;SDS011;16364;52.490;13.326;2022-10-16T09:46:29;1.50;;;1.40;;
29380;SDS011;16364;52.490;13.326;2022-10-16T09:48:56;1.97;;;1.70;;
29380;SDS011;16364;52.490;13.326;2022-10-16T09:51:22;2.53;;;1.60;;
29380;SDS011;16364;52.490;13.326;2022-10-16T09:53:48;2.47;;;1.80;;
29380;SDS011;16364;52.490;13.326;2022-10-16T09:56:32;1.97;;;1.80;;
29380;SDS011;16364;52.490;13.326;2022-10-16T09:58:59;4.70;;;3.17;;
29380;SDS011;16364;52.490;13.326;2022-10-16T10:01:29;2.80;;;1.90;;
29380;SDS011;16364;52.490;13.326;2022-10-16T10:03:55;1.43;;;1.10;;
29380;SDS011;16364;52.490;13.326;2022-10-16T10:06:27;1.33;;;1.20;;
29380;SDS011;16364;52.490;13.326;2022-10-16T10:08:56;1.60;;;1.20;;
29380;SDS011;16364;52.490;13.326;2022-10-16T10:14:15;1.20;;;1.03;;
29380;SDS011;16364;52.490;13.326;2022-10-16T10:16:41;1.20;;;1.10;;
29380;SDS011;16364;52.490;13.326;2022-10-16T10:19:12;2.57;;;1.20;;
29380;SDS011;16364;52.490;13.326;2022-10-16T10:21:38;1.20;;;1.10;;
29380;SDS011;16364;52.490;13.326;2022-10-16T10:24:03;1.70;;;1.00;;
29380;SDS011;16364;52.490;13.326;2022-10-16T10:26:29;1.40;;;1.10;;
29380;SDS011;16364;52.490;13.326;2022-10-16T10:33:54;1.00;;;1.00;;
29380;SDS011;16364;52.490;13.326;2022-10-16T10:36:32;1.87;;;1.10;;
29380;SDS011;16364;52.490;13.326;2022-10-16T10:39:04;2.17;;;1.10;;
29380;SDS011;16364;52.490;13.326;2022-10-16T10:46:42;1.00;;;1.00;;
29380;SDS011;16364;52.490;13.326;2022-10-16T11:01:50;3.10;;;1.13;;
29380;SDS011;16364;52.490;13.326;2022-10-16T11:06:50;4.30;;;1.60;;
29380;SDS011;16364;52.490;13.326;2022-10-16T11:09:18;1.10;;;1.00;;
29380;SDS011;16364;52.490;13.326;2022-10-16T11:11:49;1.20;;;1.10;;
29380;SDS011;16364;52.490;13.326;2022-10-16T11:14:20;1.77;;;1.10;;
29380;SDS011;16364;52.490;13.326;2022-10-16T11:17:30;1.20;;;1.10;;
29380;SDS011;16364;52.490;13.326;2022-10-16T11:24:45;1.77;;;1.17;;
29380;SDS011;16364;52.490;13.326;2022-10-16T11:27:14;1.57;;;1.30;;
29380;SDS011;16364;52.490;13.326;2022-10-16T11:30:43;1.40;;;1.20;;
29380;SDS011;16364;52.490;13.326;2022-10-16T11:32:44;3.80;;;1.53;;
29380;SDS011;16364;52.490;13.326;2022-10-16T11:35:21;1.20;;;1.10;;
29380;SDS011;16364;52.490;13.326;2022-10-16T11:37:48;1.40;;;1.30;;
29380;SDS011;16364;52.490;13.326;2022-10-16T11:40:25;1.40;;;1.30;;
29380;SDS011;16364;52.490;13.326;2022-10-16T11:43:04;1.27;;;1.03;;
29380;SDS011;16364;52.490;13.326;2022-10-16T11:45:34;1.37;;;1.27;;
29380;SDS011;16364;52.490;13.326;2022-10-16T11:50:42;2.60;;;1.80;;
29380;SDS011;16364;52.490;13.326;2022-10-16T11:55:36;1.30;;;1.20;;
29380;SDS011;16364;52.490;13.326;2022-10-16T11:58:03;1.20;;;1.10;;
29380;SDS011;16364;52.490;13.326;2022-10-16T12:08:13;1.50;;;0.90;;
29380;SDS011;16364;52.490;13.326;2022-10-16T12:10:40;1.07;;;0.83;;
29380;SDS011;16364;52.490;13.326;2022-10-16T12:15:50;0.90;;;0.77;;
29380;SDS011;16364;52.490;13.326;2022-10-16T12:18:22;1.37;;;0.70;;
29380;SDS011;16364;52.490;13.326;2022-10-16T12:20:54;1.63;;;0.93;;
29380;SDS011;16364;52.490;13.326;2022-10-16T12:23:23;3.00;;;0.80;;
29380;SDS011;16364;52.490;13.326;2022-10-16T12:25:53;0.80;;;0.60;;
29380;SDS011;16364;52.490;13.326;2022-10-16T12:28:20;0.80;;;0.70;;
29380;SDS011;16364;52.490;13.326;2022-10-16T12:30:52;0.70;;;0.70;;
29380;SDS011;16364;52.490;13.326;2022-10-16T12:33:26;0.80;;;0.73;;
29380;SDS011;16364;52.490;13.326;2022-10-16T12:35:52;0.90;;;0.90;;
29380;SDS011;16364;52.490;13.326;2022-10-16T12:38:21;1.17;;;0.70;;
29380;SDS011;16364;52.490;13.326;2022-10-16T12:45:46;0.67;;;0.60;;
29380;SDS011;16364;52.490;13.326;2022-10-16T12:48:19;0.90;;;0.60;;
29380;SDS011;16364;52.490;13.326;2022-10-16T12:50:45;1.00;;;0.63;;
29380;SDS011;16364;52.490;13.326;2022-10-16T12:53:20;1.10;;;0.70;;
29380;SDS011;16364;52.490;13.326;2022-10-16T12:58:36;0.70;;;0.60;;
29380;SDS011;16364;52.490;13.326;2022-10-16T13:04:02;0.70;;;0.70;;
29380;SDS011;16364;52.490;13.326;2022-10-16T13:06:33;0.60;;;0.60;;
29380;SDS011;16364;52.490;13.326;2022-10-16T13:14:28;1.23;;;0.70;;
29380;SDS011;16364;52.490;13.326;2022-10-16T13:17:04;1.20;;;0.80;;
29380;SDS011;16364;52.490;13.326;2022-10-16T13:19:53;0.70;;;0.70;;
29380;SDS011;16364;52.490;13.326;2022-10-16T13:29:59;3.43;;;0.70;;
29380;SDS011;16364;52.490;13.326;2022-10-16T13:32:25;0.70;;;0.70;;
29380;SDS011;16364;52.490;13.326;2022-10-16T13:34:51;0.70;;;0.70;;
29380;SDS011;16364;52.490;13.326;2022-10-16T13:37:18;0.73;;;0.70;;
29380;SDS011;16364;52.490;13.326;2022-10-16T13:39:44;0.90;;;0.63;;
29380;SDS011;16364;52.490;13.326;2022-10-16T13:42:27;0.90;;;0.60;;
29380;SDS011;16364;52.490;13.326;2022-10-16T13:44:53;0.70;;;0.60;;
29380;SDS011;16364;52.490;13.326;2022-10-16T13:47:20;1.10;;;0.70;;
29380;SDS011;16364;52.490;13.326;2022-10-16T13:49:46;0.97;;;0.80;;
29380;SDS011;16364;52.490;13.326;2022-10-16T13:52:15;1.37;;;0.90;;
29380;SDS011;16364;52.490;13.326;2022-10-16T13:54:41;1.10;;;0.70;;
29380;SDS011;16364;52.490;13.326;2022-10-16T13:57:06;2.03;;;0.83;;
29380;SDS011;16364;52.490;13.326;2022-10-16T13:59:33;1.77;;;0.80;;
29380;SDS011;16364;52.490;13.326;2022-10-16T14:01:58;2.80;;;1.00;;
29380;SDS011;16364;52.490;13.326;2022-10-16T14:04:25;0.70;;;0.70;;
29380;SDS011;16364;52.490;13.326;2022-10-16T14:06:52;0.90;;;0.80;;
29380;SDS011;16364;52.490;13.326;2022-10-16T14:09:22;0.80;;;0.80;;
29380;SDS011;16364;52.490;13.326;2022-10-16T14:11:49;1.00;;;0.80;;
29380;SDS011;16364;52.490;13.326;2022-10-16T14:14:16;0.77;;;0.77;;
29380;SDS011;16364;52.490;13.326;2022-10-16T14:16:42;0.80;;;0.70;;
29380;SDS011;16364;52.490;13.326;2022-10-16T14:19:26;0.80;;;0.70;;
29380;SDS011;16364;52.490;13.326;2022-10-16T14:21:52;0.90;;;0.80;;
29380;SDS011;16364;52.490;13.326;2022-10-16T14:24:30;2.40;;;0.80;;
29380;SDS011;16364;52.490;13.326;2022-10-16T14:26:56;1.10;;;0.63;;
29380;SDS011;16364;52.490;13.326;2022-10-16T14:29:22;1.63;;;0.70;;
29380;SDS011;16364;52.490;13.326;2022-10-16T14:31:58;0.90;;;0.80;;
29380;SDS011;16364;52.490;13.326;2022-10-16T14:34:31;1.00;;;0.90;;
29380;SDS011;16364;52.490;13.326;2022-10-16T14:36:58;1.87;;;0.70;;
29380;SDS011;16364;52.490;13.326;2022-10-16T14:39:24;0.67;;;0.67;;
29380;SDS011;16364;52.490;13.326;2022-10-16T14:41:51;1.37;;;0.80;;
29380;SDS011;16364;52.490;13.326;2022-10-16T14:44:17;0.90;;;0.80;;
29380;SDS011;16364;52.490;13.326;2022-10-16T14:46:43;1.57;;;0.80;;
29380;SDS011;16364;52.490;13.326;2022-10-16T14:51:34;0.98;;;0.70;;
29380;SDS011;16364;52.490;13.326;2022-10-16T14:53:59;0.80;;;0.70;;
29380;SDS011;16364;52.490;13.326;2022-10-16T14:56:25;3.33;;;0.97;;
29380;SDS011;16364;52.490;13.326;2022-10-16T14:58:53;0.83;;;0.70;;
29380;SDS011;16364;52.490;13.326;2022-10-16T15:01:18;0.80;;;0.70;;
29380;SDS011;16364;52.490;13.326;2022-10-16T15:03:43;0.70;;;0.70;;
29380;SDS011;16364;52.490;13.326;2022-10-16T15:06:13;2.13;;;0.80;;
29380;SDS011;16364;52.490;13.326;2022-10-16T15:08:38;0.80;;;0.77;;
29380;SDS011;16364;52.490;13.326;2022-10-16T15:11:04;1.03;;;0.80;;
29380;SDS011;16364;52.490;13.326;2022-10-16T15:13:29;1.77;;;0.90;;
29380;SDS011;16364;52.490;13.326;2022-10-16T15:15:54;0.90;;;0.80;;
29380;SDS011;16364;52.490;13.326;2022-10-16T15:18:19;0.90;;;0.70;;
29380;SDS011;16364;52.490;13.326;2022-10-16T15:20:47;1.53;;;0.90;;
29380;SDS011;16364;52.490;13.326;2022-10-16T15:23:14;1.93;;;0.90;;
29380;SDS011;16364;52.490;13.326;2022-10-16T15:25:46;1.80;;;1.00;;
29380;SDS011;16364;52.490;13.326;2022-10-16T15:28:12;1.33;;;0.80;;
29380;SDS011;16364;52.490;13.326;2022-10-16T15:30:37;1.83;;;0.70;;
29380;SDS011;16364;52.490;13.326;2022-10-16T15:33:03;1.77;;;0.90;;
29380;SDS011;16364;52.490;13.326;2022-10-16T15:35:28;0.87;;;0.70;;
29380;SDS011;16364;52.490;13.326;2022-10-16T15:37:54;1.00;;;0.80;;
29380;SDS011;16364;52.490;13.326;2022-10-16T15:40:19;0.73;;;0.73;;
29380;SDS011;16364;52.490;13.326;2022-10-16T15:42:44;0.80;;;0.80;;
29380;SDS011;16364;52.490;13.326;2022-10-16T15:45:10;1.87;;;1.77;;
29380;SDS011;16364;52.490;13.326;2022-10-16T15:47:35;1.73;;;1.00;;
29380;SDS011;16364;52.490;13.326;2022-10-16T15:50:01;1.37;;;1.00;;
29380;SDS011;16364;52.490;13.326;2022-10-16T15:52:26;0.93;;;0.87;;
29380;SDS011;16364;52.490;13.326;2022-10-16T15:54:53;1.00;;;0.90;;
29380;SDS011;16364;52.490;13.326;2022-10-16T15:57:18;2.20;;;0.80;;
29380;SDS011;16364;52.490;13.326;2022-10-16T15:59:43;1.17;;;1.07;;
29380;SDS011;16364;52.490;13.326;2022-10-16T16:02:09;0.80;;;0.80;;
29380;SDS011;16364;52.490;13.326;2022-10-16T16:04:34;0.90;;;0.73;;
29380;SDS011;16364;52.490;13.326;2022-10-16T16:06:59;1.07;;;0.80;;
29380;SDS011;16364;52.490;13.326;2022-10-16T16:09:26;2.10;;;1.17;;
29380;SDS011;16364;52.490;13.326;2022-10-16T16:11:51;1.40;;;1.10;;
29380;SDS011;16364;52.490;13.326;2022-10-16T16:14:17;0.83;;;0.80;;
29380;SDS011;16364;52.490;13.326;2022-10-16T16:16:42;1.63;;;1.20;;